sensor_id;sensor_type;location;lat;lon;timestamp;P1;durP1;ratioP1;P2;durP2;ratioP2
35225;SDS011;21813;49.686;21.766;2023-12-22T00:00:17;6.00;;;4.50;;
35225;SDS011;21813;49.686;21.766;2023-12-22T00:03:03;6.25;;;4.95;;
35225;SDS011;21813;49.686;21.766;2023-12-22T00:05:29;6.22;;;4.95;;
35225;SDS011;21813;49.686;21.766;2023-12-22T00:07:55;9.65;;;6.05;;
35225;SDS011;21813;49.686;21.766;2023-12-22T00:10:20;7.22;;;4.90;;
35225;SDS011;21813;49.686;21.766;2023-12-22T00:12:48;3.60;;;3.15;;
35225;SDS011;21813;49.686;21.766;2023-12-22T00:15:14;5.30;;;3.60;;
35225;SDS011;21813;49.686;21.766;2023-12-22T00:17:40;4.72;;;3.20;;
35225;SDS011;21813;49.686;21.766;2023-12-22T00:20:06;3.53;;;3.22;;
35225;SDS011;21813;49.686;21.766;2023-12-22T00:22:35;3.00;;;2.70;;
35225;SDS011;21813;49.686;21.766;2023-12-22T00:25:00;3.92;;;3.33;;
35225;SDS011;21813;49.686;21.766;2023-12-22T00:27:27;3.63;;;3.30;;
35225;SDS011;21813;49.686;21.766;2023-12-22T00:29:53;4.18;;;3.22;;
35225;SDS011;21813;49.686;21.766;2023-12-22T00:32:19;3.60;;;2.95;;
35225;SDS011;21813;49.686;21.766;2023-12-22T00:34:44;5.60;;;3.30;;
35225;SDS011;21813;49.686;21.766;2023-12-22T00:37:10;5.85;;;3.42;;
35225;SDS011;21813;49.686;21.766;2023-12-22T00:39:37;4.32;;;3.72;;
35225;SDS011;21813;49.686;21.766;2023-12-22T00:42:06;4.35;;;3.75;;
35225;SDS011;21813;49.686;21.766;2023-12-22T00:44:31;4.47;;;3.78;;
35225;SDS011;21813;49.686;21.766;2023-12-22T00:46:59;6.97;;;4.18;;
35225;SDS011;21813;49.686;21.766;2023-12-22T00:49:24;5.57;;;4.07;;
35225;SDS011;21813;49.686;21.766;2023-12-22T00:51:52;6.82;;;4.43;;
35225;SDS011;21813;49.686;21.766;2023-12-22T00:54:17;6.43;;;4.55;;
35225;SDS011;21813;49.686;21.766;2023-12-22T00:56:45;5.50;;;4.20;;
35225;SDS011;21813;49.686;21.766;2023-12-22T00:59:11;4.32;;;3.50;;
35225;SDS011;21813;49.686;21.766;2023-12-22T01:01:38;3.50;;;3.17;;
35225;SDS011;21813;49.686;21.766;2023-12-22T01:04:04;2.95;;;2.65;;
35225;SDS011;21813;49.686;21.766;2023-12-22T01:06:30;2.92;;;2.72;;
35225;SDS011;21813;49.686;21.766;2023-12-22T01:08:55;2.85;;;2.47;;
35225;SDS011;21813;49.686;21.766;2023-12-22T01:11:23;3.40;;;3.10;;
35225;SDS011;21813;49.686;21.766;2023-12-22T01:13:48;4.72;;;2.58;;
35225;SDS011;21813;49.686;21.766;2023-12-22T01:16:16;2.70;;;2.47;;
35225;SDS011;21813;49.686;21.766;2023-12-22T01:18:43;3.22;;;2.92;;
35225;SDS011;21813;49.686;21.766;2023-12-22T01:21:11;3.47;;;2.90;;
35225;SDS011;21813;49.686;21.766;2023-12-22T01:23:37;3.40;;;2.92;;
35225;SDS011;21813;49.686;21.766;2023-12-22T01:26:04;3.50;;;3.00;;
35225;SDS011;21813;49.686;21.766;2023-12-22T01:28:30;3.67;;;3.33;;
35225;SDS011;21813;49.686;21.766;2023-12-22T01:30:56;3.65;;;3.33;;
35225;SDS011;21813;49.686;21.766;2023-12-22T01:33:21;4.43;;;3.38;;
35225;SDS011;21813;49.686;21.766;2023-12-22T01:35:47;3.63;;;3.33;;
35225;SDS011;21813;49.686;21.766;2023-12-22T01:38:13;7.55;;;5.72;;
35225;SDS011;21813;49.686;21.766;2023-12-22T01:40:40;3.83;;;3.33;;
35225;SDS011;21813;49.686;21.766;2023-12-22T01:43:06;4.05;;;3.65;;
35225;SDS011;21813;49.686;21.766;2023-12-22T01:45:32;3.97;;;3.20;;
35225;SDS011;21813;49.686;21.766;2023-12-22T01:47:58;3.75;;;3.05;;
35225;SDS011;21813;49.686;21.766;2023-12-22T01:50:25;3.88;;;3.20;;
35225;SDS011;21813;49.686;21.766;2023-12-22T01:52:52;6.28;;;3.78;;
35225;SDS011;21813;49.686;21.766;2023-12-22T01:55:19;5.57;;;4.03;;
35225;SDS011;21813;49.686;21.766;2023-12-22T01:57:45;4.75;;;3.10;;
35225;SDS011;21813;49.686;21.766;2023-12-22T02:00:13;3.78;;;3.35;;
35225;SDS011;21813;49.686;21.766;2023-12-22T02:02:40;3.53;;;3.20;;
35225;SDS011;21813;49.686;21.766;2023-12-22T02:05:10;3.65;;;2.72;;
35225;SDS011;21813;49.686;21.766;2023-12-22T02:07:37;3.05;;;2.70;;
35225;SDS011;21813;49.686;21.766;2023-12-22T02:10:07;4.18;;;3.78;;
35225;SDS011;21813;49.686;21.766;2023-12-22T02:12:34;3.55;;;3.00;;
35225;SDS011;21813;49.686;21.766;2023-12-22T02:15:01;3.67;;;2.47;;
35225;SDS011;21813;49.686;21.766;2023-12-22T02:17:29;2.80;;;2.60;;
35225;SDS011;21813;49.686;21.766;2023-12-22T02:20:02;9.90;;;2.50;;
35225;SDS011;21813;49.686;21.766;2023-12-22T02:22:29;3.10;;;2.65;;
35225;SDS011;21813;49.686;21.766;2023-12-22T02:24:55;3.55;;;2.05;;
35225;SDS011;21813;49.686;21.766;2023-12-22T02:30:13;2.58;;;2.30;;
35225;SDS011;21813;49.686;21.766;2023-12-22T02:32:50;4.15;;;2.33;;
35225;SDS011;21813;49.686;21.766;2023-12-22T02:35:20;2.50;;;2.20;;
35225;SDS011;21813;49.686;21.766;2023-12-22T02:37:50;5.70;;;2.70;;
35225;SDS011;21813;49.686;21.766;2023-12-22T02:40:17;2.50;;;2.15;;
35225;SDS011;21813;49.686;21.766;2023-12-22T02:42:44;4.00;;;2.50;;
35225;SDS011;21813;49.686;21.766;2023-12-22T02:45:14;5.53;;;2.67;;
35225;SDS011;21813;49.686;21.766;2023-12-22T02:47:40;7.38;;;2.40;;
35225;SDS011;21813;49.686;21.766;2023-12-22T02:50:07;11.05;;;2.80;;
35225;SDS011;21813;49.686;21.766;2023-12-22T02:52:33;6.85;;;2.65;;
35225;SDS011;21813;49.686;21.766;2023-12-22T02:54:59;5.28;;;2.65;;
35225;SDS011;21813;49.686;21.766;2023-12-22T02:57:25;7.03;;;2.45;;
35225;SDS011;21813;49.686;21.766;2023-12-22T02:59:52;6.38;;;2.40;;
35225;SDS011;21813;49.686;21.766;2023-12-22T03:02:18;4.57;;;1.85;;
35225;SDS011;21813;49.686;21.766;2023-12-22T03:04:45;8.55;;;2.25;;
35225;SDS011;21813;49.686;21.766;2023-12-22T03:07:13;4.75;;;2.13;;
35225;SDS011;21813;49.686;21.766;2023-12-22T03:09:40;5.75;;;2.28;;
35225;SDS011;21813;49.686;21.766;2023-12-22T03:12:07;6.40;;;1.85;;
35225;SDS011;21813;49.686;21.766;2023-12-22T03:14:41;8.30;;;1.95;;
35225;SDS011;21813;49.686;21.766;2023-12-22T03:17:07;5.18;;;2.10;;
35225;SDS011;21813;49.686;21.766;2023-12-22T03:19:33;6.60;;;2.10;;
35225;SDS011;21813;49.686;21.766;2023-12-22T03:21:59;9.32;;;2.28;;
35225;SDS011;21813;49.686;21.766;2023-12-22T03:24:27;6.70;;;2.30;;
35225;SDS011;21813;49.686;21.766;2023-12-22T03:26:53;7.28;;;2.20;;
35225;SDS011;21813;49.686;21.766;2023-12-22T03:29:20;5.70;;;2.30;;
35225;SDS011;21813;49.686;21.766;2023-12-22T03:31:46;7.95;;;1.88;;
35225;SDS011;21813;49.686;21.766;2023-12-22T03:34:12;9.18;;;2.45;;
35225;SDS011;21813;49.686;21.766;2023-12-22T03:36:38;5.40;;;2.30;;
35225;SDS011;21813;49.686;21.766;2023-12-22T03:39:04;9.45;;;2.42;;
35225;SDS011;21813;49.686;21.766;2023-12-22T03:41:30;12.43;;;2.75;;
35225;SDS011;21813;49.686;21.766;2023-12-22T03:43:57;5.28;;;2.33;;
35225;SDS011;21813;49.686;21.766;2023-12-22T03:46:23;5.78;;;3.28;;
35225;SDS011;21813;49.686;21.766;2023-12-22T03:48:50;6.82;;;2.35;;
35225;SDS011;21813;49.686;21.766;2023-12-22T03:51:16;6.50;;;2.80;;
35225;SDS011;21813;49.686;21.766;2023-12-22T03:53:42;5.53;;;2.28;;
35225;SDS011;21813;49.686;21.766;2023-12-22T03:56:08;6.30;;;2.60;;
35225;SDS011;21813;49.686;21.766;2023-12-22T03:58:34;9.25;;;2.50;;
35225;SDS011;21813;49.686;21.766;2023-12-22T04:01:00;8.75;;;2.83;;
35225;SDS011;21813;49.686;21.766;2023-12-22T04:03:27;12.02;;;2.88;;
35225;SDS011;21813;49.686;21.766;2023-12-22T04:05:52;9.63;;;2.60;;
35225;SDS011;21813;49.686;21.766;2023-12-22T04:08:18;9.63;;;2.97;;
35225;SDS011;21813;49.686;21.766;2023-12-22T04:10:46;9.15;;;2.58;;
35225;SDS011;21813;49.686;21.766;2023-12-22T04:13:12;4.90;;;2.75;;
35225;SDS011;21813;49.686;21.766;2023-12-22T04:15:38;3.63;;;2.63;;
35225;SDS011;21813;49.686;21.766;2023-12-22T04:18:05;6.88;;;2.78;;
35225;SDS011;21813;49.686;21.766;2023-12-22T04:20:31;7.63;;;3.38;;
35225;SDS011;21813;49.686;21.766;2023-12-22T04:22:58;8.23;;;3.50;;
35225;SDS011;21813;49.686;21.766;2023-12-22T04:25:24;13.60;;;2.78;;
35225;SDS011;21813;49.686;21.766;2023-12-22T04:27:51;6.45;;;2.67;;
35225;SDS011;21813;49.686;21.766;2023-12-22T04:30:17;6.32;;;2.38;;
35225;SDS011;21813;49.686;21.766;2023-12-22T04:32:43;5.68;;;2.20;;
35225;SDS011;21813;49.686;21.766;2023-12-22T04:35:09;6.18;;;2.55;;
35225;SDS011;21813;49.686;21.766;2023-12-22T04:37:36;5.13;;;2.38;;
35225;SDS011;21813;49.686;21.766;2023-12-22T04:40:02;5.30;;;2.40;;
35225;SDS011;21813;49.686;21.766;2023-12-22T04:42:29;5.53;;;2.03;;
35225;SDS011;21813;49.686;21.766;2023-12-22T04:44:55;6.07;;;2.53;;
35225;SDS011;21813;49.686;21.766;2023-12-22T04:47:22;8.15;;;2.42;;
35225;SDS011;21813;49.686;21.766;2023-12-22T04:49:48;6.40;;;2.60;;
35225;SDS011;21813;49.686;21.766;2023-12-22T04:52:14;4.18;;;2.45;;
35225;SDS011;21813;49.686;21.766;2023-12-22T04:54:40;7.00;;;2.92;;
35225;SDS011;21813;49.686;21.766;2023-12-22T04:57:06;5.25;;;2.72;;
35225;SDS011;21813;49.686;21.766;2023-12-22T04:59:31;8.35;;;2.70;;
35225;SDS011;21813;49.686;21.766;2023-12-22T05:01:57;8.05;;;2.85;;
35225;SDS011;21813;49.686;21.766;2023-12-22T05:04:23;5.03;;;2.58;;
35225;SDS011;21813;49.686;21.766;2023-12-22T05:06:49;7.88;;;2.60;;
35225;SDS011;21813;49.686;21.766;2023-12-22T05:09:15;7.55;;;2.63;;
35225;SDS011;21813;49.686;21.766;2023-12-22T05:11:41;8.55;;;3.17;;
35225;SDS011;21813;49.686;21.766;2023-12-22T05:14:08;6.50;;;2.70;;
35225;SDS011;21813;49.686;21.766;2023-12-22T05:16:35;4.00;;;2.60;;
35225;SDS011;21813;49.686;21.766;2023-12-22T05:19:01;3.67;;;2.20;;
35225;SDS011;21813;49.686;21.766;2023-12-22T05:21:27;4.93;;;2.28;;
35225;SDS011;21813;49.686;21.766;2023-12-22T05:23:55;4.70;;;2.05;;
35225;SDS011;21813;49.686;21.766;2023-12-22T05:26:21;5.38;;;2.17;;
35225;SDS011;21813;49.686;21.766;2023-12-22T05:28:47;4.57;;;1.65;;
35225;SDS011;21813;49.686;21.766;2023-12-22T05:31:16;2.72;;;1.90;;
35225;SDS011;21813;49.686;21.766;2023-12-22T05:33:42;4.80;;;2.03;;
35225;SDS011;21813;49.686;21.766;2023-12-22T05:36:08;7.47;;;2.35;;
35225;SDS011;21813;49.686;21.766;2023-12-22T05:38:37;9.32;;;2.25;;
35225;SDS011;21813;49.686;21.766;2023-12-22T05:41:04;6.50;;;2.25;;
35225;SDS011;21813;49.686;21.766;2023-12-22T05:43:32;8.88;;;3.15;;
35225;SDS011;21813;49.686;21.766;2023-12-22T05:45:59;10.75;;;2.60;;
35225;SDS011;21813;49.686;21.766;2023-12-22T05:48:28;9.52;;;3.10;;
35225;SDS011;21813;49.686;21.766;2023-12-22T05:50:58;5.90;;;2.58;;
35225;SDS011;21813;49.686;21.766;2023-12-22T05:53:24;7.65;;;3.15;;
35225;SDS011;21813;49.686;21.766;2023-12-22T05:55:51;6.60;;;2.70;;
35225;SDS011;21813;49.686;21.766;2023-12-22T05:58:17;5.40;;;2.00;;
35225;SDS011;21813;49.686;21.766;2023-12-22T06:00:43;6.13;;;2.50;;
35225;SDS011;21813;49.686;21.766;2023-12-22T06:03:09;8.93;;;1.92;;
35225;SDS011;21813;49.686;21.766;2023-12-22T06:05:36;5.85;;;1.90;;
35225;SDS011;21813;49.686;21.766;2023-12-22T06:08:01;5.70;;;2.30;;
35225;SDS011;21813;49.686;21.766;2023-12-22T06:10:29;11.20;;;2.30;;
35225;SDS011;21813;49.686;21.766;2023-12-22T06:12:54;8.90;;;2.47;;
35225;SDS011;21813;49.686;21.766;2023-12-22T06:15:24;6.40;;;2.53;;
35225;SDS011;21813;49.686;21.766;2023-12-22T06:17:50;7.68;;;2.20;;
35225;SDS011;21813;49.686;21.766;2023-12-22T06:20:17;4.75;;;2.15;;
35225;SDS011;21813;49.686;21.766;2023-12-22T06:22:43;5.75;;;2.33;;
35225;SDS011;21813;49.686;21.766;2023-12-22T06:25:09;9.85;;;3.35;;
35225;SDS011;21813;49.686;21.766;2023-12-22T06:27:35;5.00;;;2.40;;
35225;SDS011;21813;49.686;21.766;2023-12-22T06:30:04;7.85;;;2.28;;
35225;SDS011;21813;49.686;21.766;2023-12-22T06:32:31;5.63;;;2.15;;
35225;SDS011;21813;49.686;21.766;2023-12-22T06:35:07;8.30;;;3.05;;
35225;SDS011;21813;49.686;21.766;2023-12-22T06:37:35;8.10;;;3.00;;
35225;SDS011;21813;49.686;21.766;2023-12-22T06:40:02;11.27;;;2.88;;
35225;SDS011;21813;49.686;21.766;2023-12-22T06:42:28;7.07;;;2.92;;
35225;SDS011;21813;49.686;21.766;2023-12-22T06:44:54;7.95;;;3.10;;
35225;SDS011;21813;49.686;21.766;2023-12-22T06:47:20;7.40;;;3.80;;
35225;SDS011;21813;49.686;21.766;2023-12-22T06:49:46;29.70;;;11.50;;
35225;SDS011;21813;49.686;21.766;2023-12-22T06:52:11;31.25;;;15.10;;
35225;SDS011;21813;49.686;21.766;2023-12-22T06:54:37;52.25;;;24.27;;
35225;SDS011;21813;49.686;21.766;2023-12-22T06:57:03;28.80;;;11.80;;
35225;SDS011;21813;49.686;21.766;2023-12-22T06:59:29;23.50;;;10.82;;
35225;SDS011;21813;49.686;21.766;2023-12-22T07:01:55;21.55;;;9.45;;
35225;SDS011;21813;49.686;21.766;2023-12-22T07:04:21;24.60;;;11.18;;
35225;SDS011;21813;49.686;21.766;2023-12-22T07:07:05;27.63;;;11.85;;
35225;SDS011;21813;49.686;21.766;2023-12-22T07:09:32;24.15;;;10.60;;
35225;SDS011;21813;49.686;21.766;2023-12-22T07:11:57;15.80;;;6.88;;
35225;SDS011;21813;49.686;21.766;2023-12-22T07:14:25;14.55;;;4.75;;
35225;SDS011;21813;49.686;21.766;2023-12-22T07:16:51;6.43;;;3.35;;
35225;SDS011;21813;49.686;21.766;2023-12-22T07:19:18;9.65;;;3.17;;
35225;SDS011;21813;49.686;21.766;2023-12-22T07:21:44;3.42;;;1.90;;
35225;SDS011;21813;49.686;21.766;2023-12-22T07:24:21;2.20;;;2.00;;
35225;SDS011;21813;49.686;21.766;2023-12-22T07:26:46;6.75;;;2.40;;
35225;SDS011;21813;49.686;21.766;2023-12-22T07:29:12;5.57;;;2.63;;
35225;SDS011;21813;49.686;21.766;2023-12-22T07:31:38;5.03;;;2.70;;
35225;SDS011;21813;49.686;21.766;2023-12-22T07:34:07;7.25;;;2.95;;
35225;SDS011;21813;49.686;21.766;2023-12-22T07:36:33;3.63;;;2.10;;
35225;SDS011;21813;49.686;21.766;2023-12-22T07:39:00;5.25;;;2.10;;
35225;SDS011;21813;49.686;21.766;2023-12-22T07:41:26;5.00;;;2.13;;
35225;SDS011;21813;49.686;21.766;2023-12-22T07:43:52;4.45;;;2.53;;
35225;SDS011;21813;49.686;21.766;2023-12-22T07:46:27;10.65;;;2.97;;
35225;SDS011;21813;49.686;21.766;2023-12-22T07:48:55;4.38;;;3.00;;
35225;SDS011;21813;49.686;21.766;2023-12-22T07:51:20;13.60;;;3.22;;
35225;SDS011;21813;49.686;21.766;2023-12-22T07:53:47;10.93;;;3.13;;
35225;SDS011;21813;49.686;21.766;2023-12-22T07:56:13;6.85;;;3.40;;
35225;SDS011;21813;49.686;21.766;2023-12-22T07:58:41;9.65;;;3.67;;
35225;SDS011;21813;49.686;21.766;2023-12-22T08:01:07;12.48;;;3.63;;
35225;SDS011;21813;49.686;21.766;2023-12-22T08:07:16;11.52;;;2.97;;
35225;SDS011;21813;49.686;21.766;2023-12-22T08:09:44;8.02;;;2.72;;
35225;SDS011;21813;49.686;21.766;2023-12-22T08:12:10;8.55;;;2.70;;
35225;SDS011;21813;49.686;21.766;2023-12-22T08:17:36;12.60;;;3.58;;
35225;SDS011;21813;49.686;21.766;2023-12-22T08:20:05;9.93;;;3.13;;
35225;SDS011;21813;49.686;21.766;2023-12-22T08:22:33;14.80;;;3.53;;
35225;SDS011;21813;49.686;21.766;2023-12-22T08:24:59;9.80;;;3.88;;
35225;SDS011;21813;49.686;21.766;2023-12-22T08:27:25;10.48;;;4.45;;
35225;SDS011;21813;49.686;21.766;2023-12-22T08:29:55;12.40;;;4.80;;
35225;SDS011;21813;49.686;21.766;2023-12-22T08:32:20;12.20;;;3.88;;
35225;SDS011;21813;49.686;21.766;2023-12-22T08:35:07;13.57;;;3.85;;
35225;SDS011;21813;49.686;21.766;2023-12-22T08:37:39;8.38;;;2.90;;
35225;SDS011;21813;49.686;21.766;2023-12-22T08:40:09;15.90;;;3.55;;
35225;SDS011;21813;49.686;21.766;2023-12-22T08:42:35;14.30;;;3.97;;
35225;SDS011;21813;49.686;21.766;2023-12-22T08:45:12;8.60;;;3.78;;
35225;SDS011;21813;49.686;21.766;2023-12-22T08:47:39;13.13;;;4.10;;
35225;SDS011;21813;49.686;21.766;2023-12-22T08:50:06;18.20;;;4.38;;
35225;SDS011;21813;49.686;21.766;2023-12-22T08:52:33;9.77;;;4.00;;
35225;SDS011;21813;49.686;21.766;2023-12-22T08:54:59;13.68;;;4.30;;
35225;SDS011;21813;49.686;21.766;2023-12-22T08:57:25;12.52;;;3.55;;
35225;SDS011;21813;49.686;21.766;2023-12-22T09:00:08;15.63;;;3.78;;
35225;SDS011;21813;49.686;21.766;2023-12-22T09:02:35;11.98;;;3.65;;
35225;SDS011;21813;49.686;21.766;2023-12-22T09:05:00;8.82;;;3.15;;
35225;SDS011;21813;49.686;21.766;2023-12-22T09:07:27;11.80;;;3.25;;
35225;SDS011;21813;49.686;21.766;2023-12-22T09:10:20;12.88;;;4.00;;
35225;SDS011;21813;49.686;21.766;2023-12-22T09:12:52;9.07;;;3.88;;
35225;SDS011;21813;49.686;21.766;2023-12-22T09:15:18;19.45;;;4.22;;
35225;SDS011;21813;49.686;21.766;2023-12-22T09:17:44;11.10;;;4.18;;
35225;SDS011;21813;49.686;21.766;2023-12-22T09:20:10;16.25;;;3.40;;
35225;SDS011;21813;49.686;21.766;2023-12-22T09:22:40;11.77;;;3.20;;
35225;SDS011;21813;49.686;21.766;2023-12-22T09:25:06;16.48;;;3.90;;
35225;SDS011;21813;49.686;21.766;2023-12-22T09:27:41;8.55;;;3.83;;
35225;SDS011;21813;49.686;21.766;2023-12-22T09:30:07;14.27;;;3.97;;
35225;SDS011;21813;49.686;21.766;2023-12-22T09:32:35;12.80;;;4.70;;
35225;SDS011;21813;49.686;21.766;2023-12-22T09:35:01;17.88;;;4.30;;
35225;SDS011;21813;49.686;21.766;2023-12-22T09:37:38;10.40;;;3.30;;
35225;SDS011;21813;49.686;21.766;2023-12-22T09:40:07;7.00;;;3.65;;
35225;SDS011;21813;49.686;21.766;2023-12-22T09:42:37;17.88;;;3.88;;
35225;SDS011;21813;49.686;21.766;2023-12-22T09:45:10;13.85;;;4.25;;
35225;SDS011;21813;49.686;21.766;2023-12-22T09:47:56;10.60;;;3.00;;
35225;SDS011;21813;49.686;21.766;2023-12-22T09:50:32;9.90;;;3.92;;
35225;SDS011;21813;49.686;21.766;2023-12-22T09:53:00;12.27;;;4.32;;
35225;SDS011;21813;49.686;21.766;2023-12-22T09:55:27;9.82;;;3.58;;
35225;SDS011;21813;49.686;21.766;2023-12-22T09:58:53;8.95;;;3.88;;
35225;SDS011;21813;49.686;21.766;2023-12-22T10:17:54;8.80;;;3.40;;
35225;SDS011;21813;49.686;21.766;2023-12-22T10:20:30;10.60;;;3.83;;
35225;SDS011;21813;49.686;21.766;2023-12-22T10:22:55;10.82;;;3.47;;
35225;SDS011;21813;49.686;21.766;2023-12-22T10:25:24;11.45;;;4.00;;
35225;SDS011;21813;49.686;21.766;2023-12-22T10:27:54;11.07;;;3.60;;
35225;SDS011;21813;49.686;21.766;2023-12-22T10:30:23;10.05;;;4.20;;
35225;SDS011;21813;49.686;21.766;2023-12-22T10:32:51;10.38;;;4.20;;
35225;SDS011;21813;49.686;21.766;2023-12-22T10:35:26;11.55;;;4.32;;
35225;SDS011;21813;49.686;21.766;2023-12-22T10:38:06;9.25;;;3.88;;
35225;SDS011;21813;49.686;21.766;2023-12-22T10:46:22;5.50;;;2.92;;
35225;SDS011;21813;49.686;21.766;2023-12-22T10:48:52;19.30;;;5.32;;
35225;SDS011;21813;49.686;21.766;2023-12-22T10:51:22;9.27;;;4.22;;
35225;SDS011;21813;49.686;21.766;2023-12-22T10:56:44;7.47;;;2.77;;
35225;SDS011;21813;49.686;21.766;2023-12-22T10:59:12;9.23;;;3.42;;
35225;SDS011;21813;49.686;21.766;2023-12-22T11:01:41;6.05;;;2.33;;
35225;SDS011;21813;49.686;21.766;2023-12-22T11:04:08;6.28;;;3.97;;
35225;SDS011;21813;49.686;21.766;2023-12-22T11:06:39;9.45;;;3.33;;
35225;SDS011;21813;49.686;21.766;2023-12-22T11:09:09;7.53;;;2.75;;
35225;SDS011;21813;49.686;21.766;2023-12-22T11:11:38;8.43;;;3.00;;
35225;SDS011;21813;49.686;21.766;2023-12-22T11:14:08;8.63;;;2.90;;
35225;SDS011;21813;49.686;21.766;2023-12-22T11:16:41;5.68;;;2.38;;
35225;SDS011;21813;49.686;21.766;2023-12-22T11:19:20;5.28;;;2.13;;
35225;SDS011;21813;49.686;21.766;2023-12-22T11:22:09;3.67;;;1.92;;
35225;SDS011;21813;49.686;21.766;2023-12-22T11:24:37;4.68;;;1.90;;
35225;SDS011;21813;49.686;21.766;2023-12-22T11:27:05;8.10;;;2.70;;
35225;SDS011;21813;49.686;21.766;2023-12-22T11:29:40;4.45;;;2.55;;
35225;SDS011;21813;49.686;21.766;2023-12-22T11:32:28;4.50;;;2.20;;
35225;SDS011;21813;49.686;21.766;2023-12-22T11:34:56;6.15;;;2.28;;
35225;SDS011;21813;49.686;21.766;2023-12-22T11:37:23;6.25;;;3.03;;
35225;SDS011;21813;49.686;21.766;2023-12-22T11:39:50;6.57;;;2.40;;
35225;SDS011;21813;49.686;21.766;2023-12-22T11:42:23;7.28;;;3.08;;
35225;SDS011;21813;49.686;21.766;2023-12-22T11:44:59;6.80;;;2.92;;
35225;SDS011;21813;49.686;21.766;2023-12-22T11:47:25;8.90;;;3.20;;
35225;SDS011;21813;49.686;21.766;2023-12-22T11:49:52;8.02;;;3.10;;
35225;SDS011;21813;49.686;21.766;2023-12-22T11:52:25;8.23;;;2.53;;
35225;SDS011;21813;49.686;21.766;2023-12-22T11:55:02;5.97;;;2.58;;
35225;SDS011;21813;49.686;21.766;2023-12-22T11:59:56;5.93;;;2.65;;
35225;SDS011;21813;49.686;21.766;2023-12-22T12:02:35;3.45;;;2.42;;
35225;SDS011;21813;49.686;21.766;2023-12-22T12:05:03;4.53;;;2.45;;
35225;SDS011;21813;49.686;21.766;2023-12-22T12:07:50;4.25;;;2.03;;
35225;SDS011;21813;49.686;21.766;2023-12-22T12:13:05;6.90;;;2.50;;
35225;SDS011;21813;49.686;21.766;2023-12-22T12:15:37;7.97;;;2.10;;
35225;SDS011;21813;49.686;21.766;2023-12-22T12:18:07;7.40;;;2.53;;
35225;SDS011;21813;49.686;21.766;2023-12-22T12:20:35;3.45;;;1.88;;
35225;SDS011;21813;49.686;21.766;2023-12-22T12:23:01;6.78;;;2.30;;
35225;SDS011;21813;49.686;21.766;2023-12-22T12:25:30;4.00;;;2.33;;
35225;SDS011;21813;49.686;21.766;2023-12-22T12:28:03;8.25;;;2.00;;
35225;SDS011;21813;49.686;21.766;2023-12-22T12:30:33;5.40;;;2.25;;
35225;SDS011;21813;49.686;21.766;2023-12-22T12:33:08;4.55;;;2.30;;
35225;SDS011;21813;49.686;21.766;2023-12-22T12:35:35;5.40;;;2.63;;
35225;SDS011;21813;49.686;21.766;2023-12-22T12:38:04;6.75;;;2.45;;
35225;SDS011;21813;49.686;21.766;2023-12-22T12:40:32;5.47;;;2.47;;
35225;SDS011;21813;49.686;21.766;2023-12-22T12:43:00;7.47;;;2.55;;
35225;SDS011;21813;49.686;21.766;2023-12-22T12:45:27;6.30;;;2.30;;
35225;SDS011;21813;49.686;21.766;2023-12-22T12:47:54;4.88;;;2.05;;
35225;SDS011;21813;49.686;21.766;2023-12-22T12:50:24;10.95;;;4.25;;
35225;SDS011;21813;49.686;21.766;2023-12-22T12:52:53;8.25;;;1.80;;
35225;SDS011;21813;49.686;21.766;2023-12-22T12:55:20;5.13;;;2.22;;
35225;SDS011;21813;49.686;21.766;2023-12-22T12:57:53;7.15;;;2.33;;
35225;SDS011;21813;49.686;21.766;2023-12-22T13:00:32;7.22;;;3.38;;
35225;SDS011;21813;49.686;21.766;2023-12-22T13:03:02;8.30;;;3.70;;
35225;SDS011;21813;49.686;21.766;2023-12-22T13:05:30;4.75;;;2.50;;
35225;SDS011;21813;49.686;21.766;2023-12-22T13:08:07;3.85;;;2.03;;
35225;SDS011;21813;49.686;21.766;2023-12-22T13:10:34;3.53;;;1.98;;
35225;SDS011;21813;49.686;21.766;2023-12-22T13:13:00;3.60;;;1.90;;
35225;SDS011;21813;49.686;21.766;2023-12-22T13:15:26;4.95;;;1.83;;
35225;SDS011;21813;49.686;21.766;2023-12-22T13:17:51;3.80;;;1.90;;
35225;SDS011;21813;49.686;21.766;2023-12-22T13:20:18;1.73;;;1.50;;
35225;SDS011;21813;49.686;21.766;2023-12-22T13:22:44;2.60;;;1.77;;
35225;SDS011;21813;49.686;21.766;2023-12-22T13:25:10;3.53;;;1.80;;
35225;SDS011;21813;49.686;21.766;2023-12-22T13:27:49;4.10;;;2.38;;
35225;SDS011;21813;49.686;21.766;2023-12-22T13:30:33;5.57;;;2.22;;
35225;SDS011;21813;49.686;21.766;2023-12-22T13:33:01;5.18;;;2.95;;
35225;SDS011;21813;49.686;21.766;2023-12-22T13:35:28;5.57;;;2.38;;
35225;SDS011;21813;49.686;21.766;2023-12-22T13:37:54;2.38;;;2.17;;
35225;SDS011;21813;49.686;21.766;2023-12-22T13:40:21;6.88;;;3.20;;
35225;SDS011;21813;49.686;21.766;2023-12-22T13:42:56;5.97;;;2.55;;
35225;SDS011;21813;49.686;21.766;2023-12-22T13:45:26;6.38;;;2.97;;
35225;SDS011;21813;49.686;21.766;2023-12-22T13:47:52;6.38;;;2.70;;
35225;SDS011;21813;49.686;21.766;2023-12-22T13:50:18;6.85;;;2.58;;
35225;SDS011;21813;49.686;21.766;2023-12-22T13:52:44;4.03;;;2.20;;
35225;SDS011;21813;49.686;21.766;2023-12-22T13:55:12;6.78;;;2.80;;
35225;SDS011;21813;49.686;21.766;2023-12-22T13:57:41;5.57;;;2.80;;
35225;SDS011;21813;49.686;21.766;2023-12-22T14:02:48;3.92;;;2.97;;
35225;SDS011;21813;49.686;21.766;2023-12-22T14:05:16;3.78;;;2.70;;
35225;SDS011;21813;49.686;21.766;2023-12-22T14:07:45;4.60;;;2.40;;
35225;SDS011;21813;49.686;21.766;2023-12-22T14:10:14;4.40;;;2.15;;
35225;SDS011;21813;49.686;21.766;2023-12-22T14:12:40;4.72;;;2.17;;
35225;SDS011;21813;49.686;21.766;2023-12-22T14:15:08;3.30;;;2.05;;
35225;SDS011;21813;49.686;21.766;2023-12-22T14:17:35;5.20;;;2.85;;
35225;SDS011;21813;49.686;21.766;2023-12-22T14:20:03;6.90;;;3.58;;
35225;SDS011;21813;49.686;21.766;2023-12-22T14:22:35;6.68;;;3.90;;
35225;SDS011;21813;49.686;21.766;2023-12-22T14:25:01;6.63;;;4.03;;
35225;SDS011;21813;49.686;21.766;2023-12-22T14:27:28;6.85;;;4.30;;
35225;SDS011;21813;49.686;21.766;2023-12-22T14:29:54;7.88;;;5.45;;
35225;SDS011;21813;49.686;21.766;2023-12-22T14:32:20;9.63;;;5.78;;
35225;SDS011;21813;49.686;21.766;2023-12-22T14:34:47;7.32;;;5.15;;
35225;SDS011;21813;49.686;21.766;2023-12-22T14:37:13;8.95;;;4.70;;
35225;SDS011;21813;49.686;21.766;2023-12-22T14:39:41;9.52;;;5.22;;
35225;SDS011;21813;49.686;21.766;2023-12-22T14:42:07;11.85;;;5.82;;
35225;SDS011;21813;49.686;21.766;2023-12-22T14:44:34;8.57;;;5.85;;
35225;SDS011;21813;49.686;21.766;2023-12-22T14:47:00;11.88;;;6.40;;
35225;SDS011;21813;49.686;21.766;2023-12-22T14:49:28;14.88;;;7.28;;
35225;SDS011;21813;49.686;21.766;2023-12-22T14:51:54;11.20;;;6.28;;
35225;SDS011;21813;49.686;21.766;2023-12-22T14:54:24;10.93;;;5.60;;
35225;SDS011;21813;49.686;21.766;2023-12-22T14:56:50;13.65;;;7.00;;
35225;SDS011;21813;49.686;21.766;2023-12-22T14:59:17;14.55;;;6.78;;
35225;SDS011;21813;49.686;21.766;2023-12-22T15:01:43;14.30;;;6.82;;
35225;SDS011;21813;49.686;21.766;2023-12-22T15:04:11;15.77;;;8.18;;
35225;SDS011;21813;49.686;21.766;2023-12-22T15:06:37;19.80;;;10.18;;
35225;SDS011;21813;49.686;21.766;2023-12-22T15:09:06;15.93;;;8.43;;
35225;SDS011;21813;49.686;21.766;2023-12-22T15:11:32;13.02;;;7.60;;
35225;SDS011;21813;49.686;21.766;2023-12-22T15:14:00;9.93;;;5.15;;
35225;SDS011;21813;49.686;21.766;2023-12-22T15:16:26;8.05;;;4.25;;
35225;SDS011;21813;49.686;21.766;2023-12-22T15:18:52;7.20;;;3.08;;